Time;durP1;ratioP1;P1;durP2;ratioP2;P2;SDS_P1;SDS_P2;PMS_P1;PMS_P2;Temp;Humidity;BMP_temperature;BMP_pressure;BME280_temperature;BME280_humidity;BME280_pressure;Samples;Min_cycle;Max_cycle;Signal;HPM_P1;HPM_P2
2022/05/07 00:00:28;;;;;;;24.15;20.17;;;13.40;99.90;;;;;;5060681;28;20127;-76
2022/05/07 00:02:55;;;;;;;26.38;20.13;;;13.40;99.90;;;;;;5062933;28;20083;-76
2022/05/07 00:05:20;;;;;;;25.10;22.15;;;13.40;99.90;;;;;;5076454;28;20076;-76
2022/05/07 00:07:47;;;;;;;25.73;19.85;;;13.40;99.90;;;;;;5062255;28;20085;-76
2022/05/07 00:10:12;;;;;;;22.73;19.48;;;13.40;99.90;;;;;;5057787;28;20055;-75
2022/05/07 00:12:38;;;;;;;24.23;20.90;;;13.40;99.90;;;;;;5078482;28;20045;-76
2022/05/07 00:15:04;;;;;;;23.80;19.15;;;13.40;99.90;;;;;;5042442;28;20112;-75
2022/05/07 00:20:15;;;;;;;24.92;19.52;;;13.40;99.90;;;;;;5062437;28;20538;-76
2022/05/07 00:22:41;;;;;;;29.40;21.27;;;13.50;99.90;;;;;;5076650;28;20049;-75
2022/05/07 00:25:07;;;;;;;24.15;19.70;;;13.40;99.90;;;;;;5058756;28;20057;-75
2022/05/07 00:27:33;;;;;;;25.55;20.73;;;13.40;99.90;;;;;;5060583;28;20045;-74
2022/05/07 00:29:58;;;;;;;27.48;21.05;;;13.40;99.90;;;;;;5045262;28;20051;-74
2022/05/07 00:32:24;;;;;;;25.40;20.60;;;13.40;99.90;;;;;;5025345;28;20048;-76
2022/05/07 00:34:50;;;;;;;25.70;21.13;;;13.30;99.90;;;;;;5062190;28;20132;-75
2022/05/07 00:37:15;;;;;;;26.40;20.67;;;13.30;99.90;;;;;;5029064;28;20052;-75
2022/05/07 00:39:41;;;;;;;27.38;20.65;;;13.30;99.90;;;;;;5020216;28;20583;-76
2022/05/07 00:42:07;;;;;;;28.10;21.67;;;13.30;99.90;;;;;;5059606;28;20045;-75
2022/05/07 00:44:34;;;;;;;27.63;21.88;;;13.20;99.90;;;;;;5076243;28;20450;-76
2022/05/07 00:47:31;;;;;;;27.73;21.20;;;13.20;99.90;;;;;;5059065;28;20053;-75
2022/05/07 00:52:44;;;;;;;27.73;20.77;;;13.10;99.90;;;;;;5076578;28;20052;-75
2022/05/07 00:55:14;;;;;;;26.17;21.45;;;13.10;99.90;;;;;;5060820;28;20406;-76
2022/05/07 00:57:40;;;;;;;28.25;21.42;;;13.10;99.90;;;;;;5059509;28;20080;-76
2022/05/07 01:00:09;;;;;;;26.33;20.75;;;13.10;99.90;;;;;;5059088;28;20049;-75
2022/05/07 01:02:39;;;;;;;25.40;21.42;;;13.00;99.90;;;;;;5060703;28;20041;-75
2022/05/07 01:05:06;;;;;;;26.27;21.13;;;13.00;99.90;;;;;;5024534;28;20417;-75
2022/05/07 01:07:33;;;;;;;27.17;21.95;;;13.00;99.90;;;;;;5059963;28;20058;-76
2022/05/07 01:10:00;;;;;;;25.30;20.15;;;13.00;99.90;;;;;;5074683;28;20068;-75
2022/05/07 01:12:26;;;;;;;27.65;21.75;;;13.00;99.90;;;;;;5061472;28;20493;-75
2022/05/07 01:14:55;;;;;;;25.85;20.50;;;13.00;99.90;;;;;;5052671;28;20053;-77
2022/05/07 01:17:21;;;;;;;29.17;23.13;;;13.00;99.90;;;;;;5041624;28;20445;-76
2022/05/07 01:19:47;;;;;;;29.45;22.88;;;13.00;99.90;;;;;;5026681;28;20040;-76
2022/05/07 01:22:13;;;;;;;27.67;22.23;;;13.00;99.90;;;;;;5024316;28;20048;-75
2022/05/07 01:24:39;;;;;;;26.35;21.27;;;13.00;99.90;;;;;;5023941;28;20095;-75
2022/05/07 01:27:05;;;;;;;26.63;21.83;;;13.00;99.90;;;;;;5060638;28;20080;-75
2022/05/07 01:29:30;;;;;;;26.60;21.02;;;13.00;99.90;;;;;;5023746;28;20088;-74
2022/05/07 01:31:56;;;;;;;28.58;21.73;;;13.00;99.90;;;;;;5062732;28;20104;-74
2022/05/07 01:34:22;;;;;;;27.85;22.27;;;13.00;99.90;;;;;;5056355;28;20045;-76
2022/05/07 01:36:48;;;;;;;27.42;21.63;;;13.00;99.90;;;;;;5027028;28;20047;-75
2022/05/07 01:39:13;;;;;;;26.23;21.58;;;13.00;99.90;;;;;;5043253;28;20048;-76
2022/05/07 01:41:39;;;;;;;29.40;22.40;;;13.00;99.90;;;;;;5060778;28;20045;-75
2022/05/07 01:44:04;;;;;;;31.30;23.08;;;13.00;99.90;;;;;;5012011;28;20045;-75
2022/05/07 01:49:14;;;;;;;25.80;21.13;;;12.90;99.90;;;;;;5041147;28;20136;-76
2022/05/07 01:51:40;;;;;;;24.38;19.85;;;12.90;99.90;;;;;;5042103;28;20125;-76
2022/05/07 01:54:07;;;;;;;25.25;20.83;;;12.90;99.90;;;;;;5042971;28;20050;-75
2022/05/07 01:56:33;;;;;;;26.25;21.33;;;12.90;99.90;;;;;;5044627;28;20037;-75
2022/05/07 01:58:59;;;;;;;28.30;22.38;;;12.90;99.90;;;;;;5077553;28;20048;-75
2022/05/07 02:01:25;;;;;;;25.60;20.52;;;12.90;99.90;;;;;;5042498;28;20486;-75
2022/05/07 02:03:51;;;;;;;23.70;20.45;;;12.90;99.90;;;;;;5044129;28;20040;-75
2022/05/07 02:06:17;;;;;;;27.70;22.77;;;12.90;99.90;;;;;;5061389;28;20084;-75
2022/05/07 02:08:43;;;;;;;28.67;23.10;;;12.90;99.90;;;;;;5059226;28;20451;-73
2022/05/07 02:11:09;;;;;;;27.10;21.90;;;12.90;99.90;;;;;;5060627;28;20049;-75
2022/05/07 02:13:34;;;;;;;30.58;23.10;;;12.90;99.90;;;;;;5057656;28;20037;-75
2022/05/07 02:16:00;;;;;;;28.02;21.63;;;12.90;99.90;;;;;;5075456;28;20530;-75
2022/05/07 02:18:26;;;;;;;28.65;22.83;;;12.90;99.90;;;;;;5018209;28;20048;-76
2022/05/07 02:20:53;;;;;;;26.73;23.10;;;12.90;99.90;;;;;;5075689;28;20048;-75
2022/05/07 02:23:20;;;;;;;30.02;22.58;;;12.90;99.90;;;;;;5058445;28;20069;-76
2022/05/07 02:25:46;;;;;;;25.95;21.75;;;12.90;99.90;;;;;;5077552;28;20053;-73
2022/05/07 02:28:11;;;;;;;26.58;22.02;;;12.90;99.90;;;;;;5043671;28;20057;-75
2022/05/07 02:30:37;;;;;;;27.27;20.75;;;12.90;99.90;;;;;;5063244;28;20187;-75
2022/05/07 02:33:03;;;;;;;26.48;21.90;;;12.90;99.90;;;;;;5029538;28;20044;-76
2022/05/07 02:35:29;;;;;;;28.92;24.08;;;12.90;99.90;;;;;;5077149;28;20071;-75
2022/05/07 02:37:54;;;;;;;28.98;23.75;;;12.90;99.90;;;;;;5046098;28;20520;-75
2022/05/07 02:40:20;;;;;;;27.83;23.08;;;12.90;99.90;;;;;;5062079;28;20048;-75
2022/05/07 02:42:46;;;;;;;27.92;22.95;;;12.90;99.90;;;;;;5044540;28;20114;-74
2022/05/07 02:45:13;;;;;;;27.40;22.65;;;12.90;99.90;;;;;;5047190;28;20044;-76
2022/05/07 02:47:40;;;;;;;29.50;23.85;;;12.90;99.90;;;;;;5062271;28;20120;-75
2022/05/07 02:50:08;;;;;;;26.05;21.27;;;12.90;99.90;;;;;;4997790;28;20111;-75
2022/05/07 02:52:35;;;;;;;25.02;21.55;;;12.90;99.90;;;;;;5063737;28;20060;-76
2022/05/07 02:55:02;;;;;;;27.70;22.25;;;12.90;99.90;;;;;;5076231;28;20371;-74
2022/05/07 02:57:28;;;;;;;29.15;23.17;;;12.90;99.90;;;;;;5078764;28;20049;-75
2022/05/07 02:59:54;;;;;;;29.20;22.40;;;12.90;99.90;;;;;;5063731;28;20084;-75
2022/05/07 03:02:19;;;;;;;26.58;20.10;;;12.90;99.90;;;;;;5060856;28;20057;-75
2022/05/07 03:04:47;;;;;;;29.98;22.70;;;12.90;99.90;;;;;;5043481;28;20089;-75
2022/05/07 03:07:13;;;;;;;29.98;22.60;;;12.90;99.90;;;;;;5045952;28;20044;-75
2022/05/07 03:09:39;;;;;;;28.83;22.67;;;12.90;99.90;;;;;;5062889;28;20556;-75
2022/05/07 03:12:05;;;;;;;30.35;23.92;;;12.90;99.90;;;;;;5027797;28;20049;-75
2022/05/07 03:14:32;;;;;;;31.30;23.90;;;12.90;99.90;;;;;;5079347;28;20128;-74
2022/05/07 03:16:58;;;;;;;27.95;22.50;;;12.80;99.90;;;;;;5028012;28;20045;-75
2022/05/07 03:19:24;;;;;;;29.42;23.65;;;12.80;99.90;;;;;;5037964;28;20126;-77
2022/05/07 03:21:50;;;;;;;29.00;22.50;;;12.80;99.90;;;;;;5063064;28;20048;-74
2022/05/07 03:24:16;;;;;;;27.48;22.40;;;12.80;99.90;;;;;;5058645;28;20037;-75
2022/05/07 03:26:44;;;;;;;27.73;22.73;;;12.80;99.90;;;;;;5043129;28;20304;-74
2022/05/07 03:29:10;;;;;;;28.27;23.52;;;12.80;99.90;;;;;;5030345;28;20056;-74
2022/05/07 03:31:37;;;;;;;30.05;24.52;;;12.80;99.90;;;;;;5024853;28;20075;-75
2022/05/07 03:34:03;;;;;;;29.17;24.00;;;12.80;99.90;;;;;;5045814;28;20088;-74
2022/05/07 03:36:29;;;;;;;27.83;23.52;;;12.90;99.90;;;;;;5062667;28;20052;-74
2022/05/07 03:38:54;;;;;;;29.42;25.25;;;12.80;99.90;;;;;;5062775;28;20041;-72
2022/05/07 03:41:20;;;;;;;31.77;25.40;;;12.80;99.90;;;;;;5044339;28;20045;-75
2022/05/07 03:43:46;;;;;;;29.45;23.95;;;12.80;99.90;;;;;;5029856;28;20497;-76
2022/05/07 03:46:12;;;;;;;32.83;26.13;;;12.80;99.90;;;;;;5061884;28;20130;-75
2022/05/07 03:48:37;;;;;;;30.90;25.63;;;12.80;99.90;;;;;;5058244;28;20065;-75
2022/05/07 03:51:03;;;;;;;30.50;25.83;;;12.80;99.90;;;;;;5030011;28;20135;-75
2022/05/07 03:53:29;;;;;;;26.35;22.33;;;12.90;99.90;;;;;;5044605;28;20175;-75
2022/05/07 03:55:56;;;;;;;29.33;24.77;;;12.90;99.90;;;;;;5061595;28;20052;-74
2022/05/07 03:58:22;;;;;;;30.38;25.25;;;12.90;99.90;;;;;;5060113;28;20057;-76
2022/05/07 04:00:48;;;;;;;28.73;24.45;;;12.90;99.90;;;;;;5044041;28;20059;-75
2022/05/07 04:03:14;;;;;;;27.17;23.33;;;12.90;99.90;;;;;;5077448;28;20048;-76
2022/05/07 04:05:40;;;;;;;26.15;21.92;;;12.90;99.90;;;;;;5043774;28;20052;-75
2022/05/07 04:08:06;;;;;;;28.48;23.73;;;12.90;99.90;;;;;;5077857;28;20226;-75
2022/05/07 04:10:32;;;;;;;31.80;24.88;;;12.90;99.90;;;;;;5059664;28;20053;-75
2022/05/07 04:12:58;;;;;;;31.45;26.13;;;12.90;99.90;;;;;;5011521;28;20037;-75
2022/05/07 04:15:23;;;;;;;27.77;22.65;;;12.90;99.90;;;;;;5062537;28;20106;-76
2022/05/07 04:17:50;;;;;;;30.08;24.75;;;12.90;99.90;;;;;;5012843;28;20049;-75
2022/05/07 04:20:16;;;;;;;30.63;24.45;;;12.90;99.90;;;;;;5028439;28;20485;-74
2022/05/07 04:22:42;;;;;;;28.90;23.75;;;12.90;99.90;;;;;;5028569;28;20119;-74
2022/05/07 04:25:10;;;;;;;31.83;24.85;;;12.90;99.90;;;;;;5042436;28;20704;-75
2022/05/07 04:27:35;;;;;;;33.78;24.52;;;12.90;99.90;;;;;;5077121;28;20052;-75
2022/05/07 04:30:01;;;;;;;30.20;24.17;;;13.00;99.90;;;;;;5028329;28;20574;-74
2022/05/07 04:32:28;;;;;;;32.40;23.80;;;13.00;99.90;;;;;;5076198;28;20478;-75
2022/05/07 04:34:57;;;;;;;32.17;25.95;;;13.00;99.90;;;;;;5043380;28;20623;-75
2022/05/07 04:37:24;;;;;;;36.67;28.85;;;13.00;99.90;;;;;;5060793;28;20505;-75
2022/05/07 04:39:50;;;;;;;34.63;26.55;;;13.00;99.90;;;;;;5075812;28;20440;-75
2022/05/07 04:42:16;;;;;;;32.05;26.70;;;13.10;99.90;;;;;;5027091;28;20649;-72
2022/05/07 04:44:42;;;;;;;32.72;26.42;;;13.10;99.90;;;;;;5042940;28;20045;-75
2022/05/07 04:47:08;;;;;;;30.17;25.52;;;13.10;99.90;;;;;;5055745;28;20505;-75
2022/05/07 04:49:35;;;;;;;30.90;26.17;;;13.10;99.90;;;;;;5041337;28;20491;-75
2022/05/07 04:52:00;;;;;;;32.67;27.45;;;13.20;99.90;;;;;;5040378;28;20080;-75
2022/05/07 04:54:26;;;;;;;37.70;30.10;;;13.20;99.90;;;;;;5025397;28;20080;-74
2022/05/07 04:56:53;;;;;;;40.33;32.28;;;12.50;99.90;;;;;;5042262;28;20136;-75
2022/05/07 04:59:20;;;;;;;30.05;26.77;;;13.20;99.90;;;;;;5058989;28;20048;-75
2022/05/07 05:01:45;;;;;;;36.03;29.90;;;13.20;99.90;;;;;;5074161;28;20056;-75
2022/05/07 05:04:11;;;;;;;35.20;28.35;;;13.30;99.90;;;;;;5074867;28;20083;-74
2022/05/07 05:06:38;;;;;;;36.95;30.60;;;13.30;99.90;;;;;;5042563;28;20112;-76
2022/05/07 05:09:05;;;;;;;37.42;32.47;;;13.30;99.90;;;;;;5042524;28;20040;-75
2022/05/07 05:11:32;;;;;;;33.83;30.08;;;13.30;99.90;;;;;;5076510;28;20156;-77
2022/05/07 05:13:57;;;;;;;34.90;28.20;;;13.40;99.90;;;;;;5027427;28;20048;-75
2022/05/07 05:16:23;;;;;;;36.42;30.77;;;12.40;99.90;;;;;;5040838;28;20482;-76
2022/05/07 05:18:49;;;;;;;34.20;28.55;;;13.40;99.90;;;;;;5060072;28;20110;-76
2022/05/07 05:21:15;;;;;;;32.13;27.45;;;13.40;99.90;;;;;;5011200;28;20045;-74
2022/05/07 05:23:41;;;;;;;32.50;28.13;;;13.50;99.90;;;;;;5058677;28;20069;-74
2022/05/07 05:26:07;;;;;;;31.00;27.15;;;13.50;99.90;;;;;;5038947;28;20056;-75
2022/05/07 05:28:35;;;;;;;35.13;30.10;;;13.60;99.90;;;;;;5027581;28;20075;-77
2022/05/07 05:31:02;;;;;;;35.90;29.63;;;13.60;99.90;;;;;;5024868;28;20055;-76
2022/05/07 05:33:28;;;;;;;38.75;32.53;;;13.60;99.90;;;;;;5035884;28;20063;-75
2022/05/07 05:35:53;;;;;;;42.67;32.42;;;13.70;99.90;;;;;;5028162;28;20045;-76
2022/05/07 05:38:19;;;;;;;37.42;31.38;;;13.80;99.90;;;;;;5027741;28;20092;-76
2022/05/07 05:40:45;;;;;;;33.60;30.00;;;13.80;99.90;;;;;;5040310;28;20059;-75
2022/05/07 05:43:11;;;;;;;34.30;27.13;;;13.90;99.90;;;;;;5060482;28;20077;-75
2022/05/07 05:45:37;;;;;;;25.60;22.40;;;13.90;99.90;;;;;;5024417;28;20051;-77
2022/05/07 05:48:06;;;;;;;27.23;21.15;;;14.00;99.90;;;;;;5039233;28;20044;-75
2022/05/07 05:50:32;;;;;;;30.25;23.13;;;14.00;99.90;;;;;;5024810;28;20052;-71
2022/05/07 05:52:58;;;;;;;26.65;22.55;;;14.00;99.90;;;;;;5059805;28;20077;-73
2022/05/07 05:55:24;;;;;;;24.40;21.38;;;14.10;99.90;;;;;;5077041;28;20041;-75
2022/05/07 05:57:50;;;;;;;31.30;23.88;;;14.10;99.90;;;;;;5028550;28;20124;-75
2022/05/07 06:00:16;;;;;;;24.17;21.42;;;14.10;99.90;;;;;;5030613;28;20037;-75
2022/05/07 06:02:45;;;;;;;30.48;22.13;;;14.10;99.90;;;;;;5028993;28;20049;-74
2022/05/07 06:05:16;;;;;;;28.23;22.02;;;14.20;99.90;;;;;;5044925;28;20251;-73
2022/05/07 06:07:42;;;;;;;30.05;23.38;;;14.20;99.90;;;;;;5009838;28;20079;-71
2022/05/07 06:10:08;;;;;;;25.55;20.73;;;14.20;99.90;;;;;;5029321;28;20486;-73
2022/05/07 06:12:34;;;;;;;24.10;20.88;;;14.20;99.90;;;;;;5031452;28;20049;-74
2022/05/07 06:15:00;;;;;;;29.50;23.88;;;14.30;99.90;;;;;;5078906;28;20037;-74
2022/05/07 06:17:26;;;;;;;27.40;23.38;;;14.30;99.90;;;;;;5029159;28;20056;-73
2022/05/07 06:19:52;;;;;;;25.02;21.38;;;14.30;99.90;;;;;;5062794;28;20056;-76
2022/05/07 06:22:18;;;;;;;28.30;22.25;;;14.30;99.90;;;;;;5078738;28;20134;-73
2022/05/07 06:27:29;;;;;;;23.15;20.70;;;14.30;99.90;;;;;;5046008;28;20053;-75
2022/05/07 06:29:56;;;;;;;27.70;22.08;;;14.30;99.90;;;;;;5061418;28;20056;-76
2022/05/07 06:32:23;;;;;;;26.48;23.35;;;14.30;99.90;;;;;;5031181;28;20099;-75
2022/05/07 06:34:49;;;;;;;24.85;22.25;;;14.30;99.90;;;;;;5063069;28;20139;-75
2022/05/07 06:37:14;;;;;;;25.17;21.95;;;14.30;99.90;;;;;;5044697;28;20045;-75
2022/05/07 06:39:41;;;;;;;27.83;24.75;;;14.40;99.90;;;;;;5029280;28;20156;-74
2022/05/07 06:42:07;;;;;;;27.17;22.55;;;14.40;99.90;;;;;;5079099;28;20044;-72
2022/05/07 06:44:33;;;;;;;27.55;24.65;;;14.40;99.90;;;;;;5078981;28;20044;-75
2022/05/07 06:46:59;;;;;;;28.33;24.98;;;14.50;99.90;;;;;;5062448;28;20255;-74
2022/05/07 06:49:25;;;;;;;27.88;24.85;;;14.50;99.90;;;;;;5043183;28;20122;-76
2022/05/07 06:51:51;;;;;;;28.70;25.48;;;14.60;99.90;;;;;;5063050;28;20045;-75
2022/05/07 06:54:17;;;;;;;25.98;23.27;;;14.60;99.90;;;;;;5028997;28;20051;-75
2022/05/07 06:56:43;;;;;;;30.77;25.27;;;14.60;99.90;;;;;;5028945;28;20572;-77
2022/05/07 06:59:10;;;;;;;29.90;24.95;;;14.70;99.90;;;;;;5063153;28;20092;-76
2022/05/07 07:01:36;;;;;;;26.55;23.70;;;14.70;99.90;;;;;;5043645;28;20127;-75
2022/05/07 07:04:03;;;;;;;28.90;25.80;;;14.80;99.90;;;;;;5024074;28;20041;-77
2022/05/07 07:06:28;;;;;;;33.55;27.70;;;14.80;99.90;;;;;;5047783;28;20499;-75
2022/05/07 07:08:55;;;;;;;29.35;25.20;;;14.90;99.90;;;;;;5029781;28;20041;-76
2022/05/07 07:11:21;;;;;;;34.72;29.08;;;15.00;99.90;;;;;;5060541;28;20136;-75
2022/05/07 07:13:47;;;;;;;29.55;25.92;;;15.10;99.90;;;;;;5046495;28;20505;-74
2022/05/07 07:16:13;;;;;;;30.48;25.90;;;15.30;99.90;;;;;;5062125;28;20049;-77
2022/05/07 07:18:39;;;;;;;28.73;24.75;;;15.30;99.90;;;;;;5046258;28;20060;-76
2022/05/07 07:21:05;;;;;;;33.35;28.15;;;15.40;99.90;;;;;;5028261;28;20044;-75
2022/05/07 07:23:31;;;;;;;31.40;27.35;;;15.50;99.90;;;;;;5047251;28;20473;-75
2022/05/07 07:25:57;;;;;;;28.73;25.65;;;15.60;99.90;;;;;;5059262;28;20057;-75
2022/05/07 07:28:23;;;;;;;26.05;23.00;;;15.70;99.90;;;;;;5063014;28;20052;-75
2022/05/07 07:30:49;;;;;;;26.02;23.27;;;15.80;99.90;;;;;;5041557;28;20406;-75
2022/05/07 07:33:15;;;;;;;27.65;24.73;;;15.80;99.90;;;;;;5009637;28;20057;-75
2022/05/07 07:35:43;;;;;;;30.35;25.88;;;16.00;99.90;;;;;;5078249;28;20044;-76
2022/05/07 07:38:09;;;;;;;26.55;23.75;;;16.10;99.90;;;;;;5044480;28;20072;-76
2022/05/07 07:40:35;;;;;;;27.13;22.02;;;16.20;99.90;;;;;;5045204;28;20402;-76
2022/05/07 07:43:01;;;;;;;26.92;23.27;;;16.30;99.90;;;;;;5026762;28;20052;-76
2022/05/07 07:48:11;;;;;;;28.40;22.67;;;16.40;99.90;;;;;;5075227;28;20053;-77
2022/05/07 07:50:38;;;;;;;27.25;22.60;;;16.50;99.90;;;;;;5027545;28;20045;-74
2022/05/07 07:53:09;;;;;;;26.42;21.70;;;16.50;99.90;;;;;;5040798;28;20833;-78
2022/05/07 07:55:36;;;;;;;25.63;20.02;;;16.60;99.90;;;;;;5060297;28;20094;-75
2022/05/07 07:58:07;;;;;;;25.33;21.48;;;16.70;99.90;;;;;;5044640;28;20061;-76
2022/05/07 08:00:34;;;;;;;23.85;20.77;;;16.70;99.90;;;;;;5043501;28;20102;-76
2022/05/07 08:03:09;;;;;;;23.45;19.63;;;16.70;99.90;;;;;;5058478;28;20462;-77
2022/05/07 08:05:36;;;;;;;23.00;18.90;;;16.80;99.90;;;;;;5060956;28;20128;-75
2022/05/07 08:13:39;;;;;;;21.60;17.20;;;17.10;99.90;;;;;;5063953;28;20052;-77
2022/05/07 08:16:07;;;;;;;23.42;18.45;;;17.10;99.90;;;;;;5044925;28;20091;-76
2022/05/07 08:18:33;;;;;;;21.42;17.95;;;17.20;99.90;;;;;;5081063;28;20056;-76
2022/05/07 08:20:59;;;;;;;23.50;18.48;;;17.50;99.90;;;;;;5045260;28;20757;-76
2022/05/07 08:23:26;;;;;;;20.85;17.50;;;17.80;99.90;;;;;;5039150;28;20045;-77
2022/05/07 08:25:53;;;;;;;19.48;16.25;;;18.00;99.90;;;;;;5063802;28;20407;-77
2022/05/07 08:28:19;;;;;;;19.80;14.23;;;18.30;99.90;;;;;;5064916;28;20149;-77
2022/05/07 08:30:45;;;;;;;16.88;14.38;;;18.40;99.90;;;;;;5079526;28;20057;-78
2022/05/07 08:33:11;;;;;;;24.33;15.68;;;18.70;99.90;;;;;;5047349;28;20132;-77
2022/05/07 08:35:37;;;;;;;17.90;14.18;;;18.80;99.90;;;;;;5080038;28;20144;-81
2022/05/07 08:38:03;;;;;;;18.60;15.15;;;18.80;99.90;;;;;;5077755;28;20663;-78
2022/05/07 08:40:29;;;;;;;19.50;13.82;;;18.70;99.90;;;;;;5080893;28;20073;-78
2022/05/07 08:42:56;;;;;;;16.98;14.20;;;18.70;99.90;;;;;;5031057;28;20048;-80
2022/05/07 08:45:22;;;;;;;17.83;13.55;;;18.60;99.90;;;;;;5039646;28;20052;-81
2022/05/07 08:47:54;;;;;;;16.20;12.55;;;18.60;99.90;;;;;;5024898;28;20052;-82
2022/05/07 08:50:21;;;;;;;16.83;14.32;;;18.50;99.90;;;;;;5064953;28;20041;-81
2022/05/07 08:52:49;;;;;;;17.23;14.40;;;18.40;99.90;;;;;;5008309;28;20075;-84
2022/05/07 08:55:19;;;;;;;20.70;14.77;;;18.40;99.90;;;;;;5045086;28;20060;-81
2022/05/07 08:57:48;;;;;;;21.13;14.77;;;18.40;99.90;;;;;;5030245;28;20057;-80
2022/05/07 09:00:15;;;;;;;20.02;15.73;;;18.30;99.90;;;;;;5055858;28;20117;-82
2022/05/07 09:02:44;;;;;;;18.95;15.18;;;18.40;99.90;;;;;;5081986;28;20061;-81
2022/05/07 09:05:11;;;;;;;20.67;15.43;;;18.50;99.90;;;;;;5079877;28;20053;-81
2022/05/07 09:07:39;;;;;;;18.73;15.52;;;18.50;99.90;;;;;;5025194;28;20131;-81
2022/05/07 09:10:14;;;;;;;19.48;15.27;;;18.60;99.90;;;;;;5047303;28;20049;-80
2022/05/07 09:12:40;;;;;;;20.73;17.02;;;18.60;99.90;;;;;;5030694;28;20515;-80
2022/05/07 09:15:08;;;;;;;20.02;16.75;;;18.60;99.90;;;;;;5079664;28;20111;-78
2022/05/07 09:17:35;;;;;;;22.08;16.02;;;18.60;99.90;;;;;;5061939;28;20088;-76
2022/05/07 09:20:15;;;;;;;20.52;16.30;;;18.70;99.90;;;;;;5046072;28;20095;-78
2022/05/07 09:22:55;;;;;;;20.00;15.35;;;18.80;99.90;;;;;;5063677;28;20057;-78
2022/05/07 09:25:23;;;;;;;18.17;14.48;;;18.80;99.90;;;;;;5021905;28;20425;-80
2022/05/07 09:27:57;;;;;;;15.38;12.40;;;18.90;99.90;;;;;;5046243;28;20136;-81
2022/05/07 09:30:26;;;;;;;18.13;13.48;;;19.00;99.90;;;;;;5046970;28;20049;-79
2022/05/07 09:32:55;;;;;;;17.52;14.23;;;19.00;99.90;;;;;;5043156;28;20053;-80
2022/05/07 09:38:11;;;;;;;17.48;13.23;;;19.00;99.90;;;;;;5083194;28;20053;-78
2022/05/07 09:40:39;;;;;;;14.50;11.48;;;18.90;99.90;;;;;;5032799;28;20041;-75
2022/05/07 09:43:07;;;;;;;13.18;10.80;;;19.00;99.90;;;;;;5083798;28;20175;-79
2022/05/07 09:45:34;;;;;;;12.35;10.40;;;19.00;99.90;;;;;;5047139;28;20064;-79
2022/05/07 09:48:01;;;;;;;12.45;9.98;;;19.30;99.90;;;;;;5048365;28;20036;-80
2022/05/07 09:58:46;;;;;;;11.82;8.98;;;19.10;99.90;;;;;;5085506;28;20461;-74
2022/05/07 10:01:21;;;;;;;11.95;9.05;;;19.00;99.90;;;;;;5048118;28;20701;-78
2022/05/07 10:04:06;;;;;;;11.40;8.52;;;18.90;99.90;;;;;;5066651;28;20041;-80
2022/05/07 10:07:13;;;;;;;10.85;8.68;;;18.90;99.90;;;;;;5033428;28;20049;-78
2022/05/07 10:09:58;;;;;;;12.75;9.27;;;19.00;99.90;;;;;;5043376;28;20053;-77
2022/05/07 10:12:25;;;;;;;11.60;9.95;;;19.00;99.90;;;;;;5048739;28;20152;-77
2022/05/07 10:14:51;;;;;;;13.50;9.77;;;19.10;99.90;;;;;;5050525;28;20055;-77
2022/05/07 10:17:21;;;;;;;10.98;8.70;;;19.00;99.90;;;;;;5034047;28;20041;-77
2022/05/07 10:19:49;;;;;;;11.98;9.68;;;19.90;99.90;;;;;;5044496;28;20072;-78
2022/05/07 10:22:23;;;;;;;12.40;9.10;;;20.10;99.90;;;;;;5042924;28;20114;-77
2022/05/07 10:25:04;;;;;;;11.35;8.98;;;20.30;99.90;;;;;;5083963;28;20049;-78
2022/05/07 10:27:31;;;;;;;12.13;8.55;;;20.40;99.90;;;;;;5050181;28;20055;-78
2022/05/07 10:30:04;;;;;;;11.23;8.15;;;20.40;99.90;;;;;;5046455;28;20041;-78
2022/05/07 10:32:30;;;;;;;10.75;8.20;;;20.50;99.90;;;;;;5049721;28;20048;-78
2022/05/07 10:34:56;;;;;;;11.77;8.40;;;20.60;99.90;;;;;;5026698;28;20409;-80
2022/05/07 10:37:22;;;;;;;8.75;7.68;;;20.70;99.90;;;;;;5048365;28;20090;-78
2022/05/07 10:39:52;;;;;;;10.30;8.13;;;20.70;99.90;;;;;;5032890;28;20048;-75
2022/05/07 10:42:19;;;;;;;10.15;7.53;;;21.00;99.90;;;;;;5041632;28;20498;-75
2022/05/07 10:44:45;;;;;;;10.85;8.15;;;21.30;99.90;;;;;;5065761;28;20102;-77
2022/05/07 10:47:16;;;;;;;10.32;7.63;;;21.40;99.90;;;;;;5025097;28;20052;-74
2022/05/07 10:50:11;;;;;;;12.13;9.70;;;21.50;99.90;;;;;;5025916;28;20122;-75
2022/05/07 10:52:37;;;;;;;12.13;9.60;;;21.70;99.90;;;;;;5082284;28;20084;-77
2022/05/07 10:55:16;;;;;;;12.25;9.88;;;22.00;99.90;;;;;;5080226;28;20080;-79
2022/05/07 10:57:43;;;;;;;13.18;9.35;;;22.10;99.90;;;;;;5032006;28;20053;-77
2022/05/07 11:00:29;;;;;;;13.48;10.20;;;22.30;99.90;;;;;;5041916;28;20044;-77
2022/05/07 11:03:00;;;;;;;11.60;9.27;;;22.60;99.90;;;;;;5065364;28;20068;-80
2022/05/07 11:05:33;;;;;;;11.48;9.05;;;22.90;99.90;;;;;;5083207;28;20482;-79
2022/05/07 11:08:02;;;;;;;11.65;8.77;;;23.30;99.90;;;;;;5048891;28;20048;-75
2022/05/07 11:10:30;;;;;;;11.27;9.38;;;23.30;99.90;;;;;;5027575;28;20063;-75
2022/05/07 11:13:12;;;;;;;13.23;9.73;;;23.40;99.90;;;;;;5040800;28;20037;-78
2022/05/07 11:15:38;;;;;;;10.90;8.65;;;23.20;99.90;;;;;;5065140;28;20049;-72
2022/05/07 11:18:16;;;;;;;11.82;8.68;;;23.20;99.90;;;;;;5049607;28;20059;-74
2022/05/07 11:20:43;;;;;;;8.57;7.03;;;23.10;99.90;;;;;;5048403;28;20049;-76
2022/05/07 11:23:13;;;;;;;8.77;7.03;;;23.20;99.90;;;;;;5046417;28;20494;-77
2022/05/07 11:25:40;;;;;;;8.07;6.80;;;23.70;99.90;;;;;;5048961;28;20069;-74
2022/05/07 11:28:06;;;;;;;8.82;6.65;;;24.20;99.90;;;;;;5031024;28;20049;-77
2022/05/07 11:30:32;;;;;;;8.45;7.32;;;24.50;99.90;;;;;;5024589;28;20053;-77
2022/05/07 11:33:05;;;;;;;9.63;7.22;;;24.90;99.90;;;;;;5030004;28;20087;-77
2022/05/07 11:35:30;;;;;;;9.18;7.47;;;24.90;99.90;;;;;;5031537;28;20053;-76
2022/05/07 11:37:56;;;;;;;9.27;7.15;;;24.70;99.90;;;;;;5032190;28;20053;-77
2022/05/07 11:40:31;;;;;;;8.52;6.90;;;24.30;99.90;;;;;;5065106;28;20618;-76
2022/05/07 11:45:41;;;;;;;8.82;7.22;;;24.20;99.90;;;;;;5066355;28;20040;-76
2022/05/07 11:48:13;;;;;;;8.93;8.02;;;24.20;99.90;;;;;;5048491;28;20792;-76
2022/05/07 11:51:00;;;;;;;10.57;7.95;;;24.10;99.90;;;;;;5064714;28;20094;-73
2022/05/07 11:53:35;;;;;;;7.95;6.93;;;24.10;99.90;;;;;;5047823;28;20071;-77
2022/05/07 11:56:11;;;;;;;7.45;6.22;;;24.20;99.90;;;;;;5080540;28;20052;-77
2022/05/07 11:58:49;;;;;;;6.45;5.45;;;24.30;99.90;;;;;;5047749;28;20052;-76
2022/05/07 12:01:28;;;;;;;5.60;5.00;;;24.30;99.90;;;;;;5047276;28;20049;-77
2022/05/07 12:03:54;;;;;;;6.50;5.50;;;24.20;99.90;;;;;;5031226;28;20049;-77
2022/05/07 12:06:33;;;;;;;6.28;5.40;;;24.20;99.90;;;;;;5047039;28;20048;-75
2022/05/07 12:09:09;;;;;;;5.82;5.22;;;24.30;99.90;;;;;;5008750;28;20084;-77
2022/05/07 12:11:34;;;;;;;5.85;5.00;;;24.60;99.90;;;;;;5041407;28;20509;-76
2022/05/07 12:14:00;;;;;;;5.60;4.78;;;24.50;99.90;;;;;;5047285;28;20056;-77
2022/05/07 12:19:10;;;;;;;6.15;5.50;;;24.60;99.50;;;;;;5065223;28;20058;-72
2022/05/07 12:29:51;;;;;;;8.02;5.80;;;23.90;99.90;;;;;;5047557;28;20053;-76
2022/05/07 12:32:18;;;;;;;8.85;6.18;;;23.80;99.90;;;;;;5065082;28;20144;-76
2022/05/07 12:34:44;;;;;;;8.02;5.97;;;23.80;99.90;;;;;;5080718;28;20398;-76
2022/05/07 12:37:10;;;;;;;9.88;5.90;;;23.90;99.80;;;;;;5046700;28;20049;-75
2022/05/07 12:39:36;;;;;;;6.45;4.57;;;23.90;99.90;;;;;;5048111;28;20052;-75
2022/05/07 12:42:07;;;;;;;7.28;4.82;;;24.10;99.90;;;;;;5031340;28;20048;-76
2022/05/07 12:44:32;;;;;;;6.38;4.60;;;24.70;99.40;;;;;;5047734;28;20901;-76
2022/05/07 12:46:59;;;;;;;6.57;4.90;;;25.00;98.80;;;;;;5030927;28;20045;-76
2022/05/07 12:49:24;;;;;;;8.10;4.70;;;25.20;98.50;;;;;;5046176;28;20072;-75
2022/05/07 12:51:51;;;;;;;7.97;4.78;;;25.20;97.90;;;;;;5030281;28;20427;-75
2022/05/07 12:54:17;;;;;;;8.48;6.55;;;25.20;97.80;;;;;;5063840;28;20111;-77
2022/05/07 12:56:44;;;;;;;9.52;7.45;;;25.10;98.00;;;;;;5047814;28;20056;-76
2022/05/07 12:59:10;;;;;;;9.65;6.88;;;24.90;98.70;;;;;;5030434;28;20041;-77
2022/05/07 13:01:37;;;;;;;9.63;7.80;;;24.80;99.20;;;;;;5047828;28;20044;-75
2022/05/07 13:04:03;;;;;;;7.40;6.40;;;24.60;99.60;;;;;;5030377;28;20397;-77
2022/05/07 13:06:28;;;;;;;7.13;5.35;;;24.30;99.70;;;;;;5047275;28;20048;-76
2022/05/07 13:08:58;;;;;;;6.68;5.03;;;24.10;99.90;;;;;;5046657;28;20068;-77
2022/05/07 13:11:24;;;;;;;7.32;4.50;;;24.00;99.90;;;;;;5029271;28;20056;-76
2022/05/07 13:13:51;;;;;;;5.15;4.38;;;23.90;99.90;;;;;;5080147;28;20048;-75
2022/05/07 13:16:17;;;;;;;6.28;4.07;;;23.90;99.90;;;;;;5045441;28;20114;-76